Latest Weather Observations for Mount Gambier

IDS60801

Issued at 5:01 am CDT Sunday 7 February 2016 (issued every 30 minutes, with the page automatically refreshed every 10 minutes)

About weather observations | Map of weather stations | Latest weather observations for SA | Other Formats
Station Details ID: 026021 Name: MOUNT GAMBIER AERO Lat: -37.75 Lon: 140.77 Height: 63.0 m
Data from the previous 72 hours. | See also: Recent months at Mount Gambier
Date/Time
CDT
Temp
°C
App
Temp
°C
Dew
Point
Rel
Hum
%
Delta-T
°C
Wind Press
QNH
hPa
Press
MSL
hPa
Rain
since 9 am
mm
Dir
 
Spd
km/h
Gust
km/h
Spd
kts
Gust
kts
07/05:00am 15.7 14.6 15.2 97 0.3 SSW 15 19 8 10 1016.3 1016.1 0.0
07/04:41am 14.8 13.7 14.3 97 0.3 SW 13 19 7 10 1016.1 1015.9 0.0
07/04:36am 14.7 13.1 14.0 96 0.4 SW 15 17 8 9 1016.1 1015.9 0.0
07/04:30am 14.5 13.2 13.6 94 0.5 SW 13 17 7 9 1016.1 1015.9 0.0
07/04:00am 13.9 13.2 13.2 96 0.4 SW 9 11 5 6 1015.6 1015.4 0.0
07/03:30am 14.4 13.7 13.3 93 0.6 SW 9 9 5 5 1015.3 1015.1 0.0
07/03:00am 14.2 15.2 13.3 94 0.5 CALM 0 9 0 5 1015.2 1015.0 0.0
07/02:30am 14.7 15.8 13.6 93 0.6 CALM 0 2 0 1 1015.2 1015.0 0.0
07/02:00am 14.6 15.7 13.5 93 0.6 CALM 0 0 0 0 1015.4 1015.2 0.0
07/01:30am 14.8 14.6 13.7 93 0.6 WSW 7 9 4 5 1015.8 1015.6 0.0
07/01:00am 15.1 15.0 13.9 92 0.7 SSW 7 9 4 5 1015.9 1015.7 0.0
07/12:30am 15.1 15.8 13.3 89 1.0 SSW 2 6 1 3 1016.0 1015.8 0.0
07/12:00am 15.9 15.9 14.1 89 1.0 SSW 7 9 4 5 1016.2 1016.0 0.0
 
Date/Time
CDT
Temp
°C
App
Temp
°C
Dew
Point
Rel
Hum
%
Delta-T
°C
Wind Press
QNH
hPa
Press
MSL
hPa
Rain
since 9 am
mm
Dir
 
Spd
km/h
Gust
km/h
Spd
kts
Gust
kts
06/11:30pm 16.1 16.0 14.0 87 1.2 SSW 7 9 4 5 1016.2 1016.0 0.0
06/11:00pm 16.6 16.1 13.8 83 1.6 S 9 11 5 6 1016.1 1015.9 0.0
06/10:30pm 17.1 17.0 13.9 81 1.8 S 7 9 4 5 1016.1 1015.9 0.0
06/10:00pm 17.5 16.9 13.6 78 2.2 SSE 9 11 5 6 1016.0 1015.8 0.0
06/09:30pm 18.6 17.2 13.3 71 3.0 S 13 17 7 9 1015.9 1015.7 0.0
06/09:00pm 19.0 17.5 13.0 68 3.4 SSW 13 17 7 9 1015.6 1015.4 0.0
06/08:30pm 20.0 18.4 12.8 63 4.1 S 13 17 7 9 1015.2 1015.0 0.0
06/08:00pm 21.3 18.8 12.3 56 5.1 S 17 22 9 12 1015.0 1014.8 0.0
06/07:30pm 22.6 19.0 12.0 51 6.0 S 22 28 12 15 1014.7 1014.5 0.0
06/07:00pm 24.1 20.5 12.0 46 6.9 S 22 28 12 15 1014.2 1014.0 0.0
06/06:30pm 25.5 21.2 10.9 40 8.2 SSW 24 30 13 16 1013.8 1013.6 0.0
06/06:00pm 26.5 22.4 10.2 36 9.1 SSW 22 32 12 17 1013.7 1013.5 0.0
06/05:30pm 27.3 23.0 9.4 32 9.9 SSW 22 30 12 16 1013.6 1013.4 0.0
06/05:00pm 27.7 22.6 9.3 31 10.2 S 26 33 14 18 1013.6 1013.4 0.0
06/04:30pm 29.1 23.5 8.9 28 11.2 S 28 35 15 19 1013.6 1013.4 0.0
06/04:00pm 29.2 24.6 9.8 30 10.9 SSW 24 32 13 17 1013.6 1013.4 0.0
06/03:30pm 31.1 26.9 11.1 29 11.6 SSW 24 33 13 18 1013.7 1013.5 0.0
06/03:00pm 31.4 26.9 10.0 26 12.2 SSW 24 33 13 18 1013.9 1013.7 0.0
06/02:30pm 31.3 26.2 10.6 28 11.9 SW 28 37 15 20 1014.0 1013.8 0.0
06/02:00pm 32.1 27.3 11.7 28 12.0 SSW 28 41 15 22 1013.9 1013.7 0.0
06/01:30pm 32.0 28.5 8.9 24 13.0 W 17 28 9 15 1014.3 1014.1 0.0
06/01:00pm 31.5 28.5 9.1 25 12.6 SW 15 30 8 16 1014.6 1014.4 0.0
06/12:30pm 30.9 28.7 9.4 26 12.1 WNW 11 19 6 10 1015.0 1014.8 0.0
06/12:00pm 30.3 27.7 9.5 27 11.7 WSW 13 22 7 12 1015.4 1015.2 0.0
06/11:30am 29.5 27.6 10.6 31 10.8 W 11 15 6 8 1015.8 1015.6 0.0
06/11:00am 27.9 26.6 11.3 35 9.5 NNW 9 15 5 8 1016.1 1015.9 0.0
06/10:30am 26.9 26.0 11.5 38 8.8 WNW 7 11 4 6 1016.3 1016.1 0.0
06/10:00am 25.2 24.1 11.9 43 7.6 N 9 13 5 7 1016.4 1016.2 0.0
06/09:30am 21.9 21.4 13.8 60 4.7 NE 9 11 5 6 1016.5 1016.3 0.0
06/09:00am 19.3 18.3 14.5 74 2.8 NE 13 15 7 8 1016.5 1016.3 0.0
06/08:30am 17.3 17.1 14.7 85 1.5 ENE 9 13 5 7 1016.4 1016.2 0.0
06/08:00am 15.0 15.0 14.3 96 0.4 ENE 7 9 4 5 1016.2 1016.0 0.0
06/07:30am 13.5 14.6 13.5 100 0.0 CALM 0 0 0 0 1016.0 1015.8 0.0
06/07:00am 11.7 12.1 11.3 97 0.2 CALM 0 0 0 0 1015.8 1015.6 0.0
06/06:58am 11.5 11.9 11.1 97 0.2 CALM 0 0 0 0 1015.8 1015.6 0.0
06/06:48am 11.6 12.1 11.6 100 0.0 CALM 0 2 0 1 1015.7 1015.5 0.0
06/06:30am 11.3 11.7 11.3 100 0.0 CALM 0 4 0 2 1015.5 1015.3 0.0
06/06:00am 12.1 12.6 11.7 97 0.2 CALM 0 0 0 0 1015.1 1014.9 0.0
06/05:52am 12.1 12.6 11.5 96 0.3 CALM 0 0 0 0 1015.1 1014.9 0.0
06/05:37am 12.4 13.1 12.2 99 0.1 CALM 0 0 0 0 1015.1 1014.9 0.0
06/05:30am 12.4 13.0 12.0 97 0.2 CALM 0 0 0 0 1015.0 1014.8 0.0
06/05:20am 12.7 13.4 12.3 97 0.2 CALM 0 0 0 0 1015.0 1014.8 0.0
06/05:06am 12.2 12.8 12.0 99 0.1 CALM 0 0 0 0 1015.0 1014.8 0.0
06/05:00am 13.0 13.8 12.6 97 0.2 CALM 0 0 0 0 1014.9 1014.7 0.0
06/04:50am 13.2 14.1 12.8 97 0.2 CALM 0 0 0 0 1014.9 1014.7 0.0
06/04:30am 13.1 13.9 12.5 96 0.3 CALM 0 6 0 3 1014.9 1014.7 0.0
06/04:00am 13.4 13.0 12.9 97 0.3 SE 7 9 4 5 1015.1 1014.9 0.0
06/03:59am 13.3 12.9 12.9 97 0.2 SE 7 9 4 5 1015.1 1014.9 0.0
06/03:47am 13.5 13.1 13.0 97 0.3 SE 7 9 4 5 1015.2 1015.0 0.0
06/03:30am 13.2 12.7 12.8 97 0.2 SE 7 9 4 5 1015.3 1015.1 0.0
06/03:00am 13.8 13.1 13.3 97 0.3 S 9 11 5 6 1015.6 1015.4 0.0
06/02:30am 14.0 13.8 13.5 97 0.3 S 7 9 4 5 1015.9 1015.7 0.0
06/02:18am 13.9 13.6 13.2 96 0.4 SSE 7 9 4 5 1016.0 1015.8 0.0
06/02:00am 14.3 13.7 13.6 96 0.4 SSE 9 11 5 6 1016.2 1016.0 0.0
06/01:30am 14.5 13.6 13.8 96 0.4 S 11 13 6 7 1016.6 1016.4 0.0
06/01:00am 15.0 14.3 14.3 96 0.4 SSE 11 15 6 8 1016.7 1016.5 0.0
06/12:30am 15.2 14.5 14.3 94 0.5 S 11 13 6 7 1017.0 1016.8 0.0
06/12:00am 15.0 13.8 13.9 93 0.6 SE 13 17 7 9 1017.2 1017.0 0.0
 
Date/Time
CDT
Temp
°C
App
Temp
°C
Dew
Point
Rel
Hum
%
Delta-T
°C
Wind Press
QNH
hPa
Press
MSL
hPa
Rain
since 9 am
mm
Dir
 
Spd
km/h
Gust
km/h
Spd
kts
Gust
kts
05/11:30pm 15.0 14.5 13.8 92 0.7 SSE 9 13 5 7 1017.5 1017.3 0.0
05/11:00pm 15.4 14.7 14.2 92 0.7 SSE 11 13 6 7 1017.8 1017.6 0.0
05/10:30pm 16.1 15.0 14.3 89 1.0 S 13 13 7 7 1018.0 1017.8 0.0
05/10:00pm 16.6 16.0 14.5 87 1.2 SSE 11 15 6 8 1018.1 1017.9 0.0
05/09:30pm 17.0 16.0 14.6 86 1.4 SSE 13 19 7 10 1018.0 1017.8 0.0
05/09:00pm 17.5 15.8 14.6 83 1.7 SSE 17 20 9 11 1018.0 1017.8 0.0
05/08:30pm 18.2 15.9 14.6 79 2.1 SSE 20 30 11 16 1017.6 1017.4 0.0
05/08:00pm 19.1 16.0 14.4 74 2.7 SSE 24 30 13 16 1017.5 1017.3 0.0
05/07:30pm 20.1 16.9 14.2 69 3.4 SSE 24 35 13 19 1017.1 1016.9 0.0
05/07:00pm 20.9 16.9 14.2 65 3.9 S 28 35 15 19 1016.7 1016.5 0.0
05/06:30pm 21.6 16.6 14.0 62 4.4 S 33 43 18 23 1016.6 1016.4 0.0
05/06:00pm 22.8 17.5 14.1 58 5.1 SSE 35 48 19 26 1016.5 1016.3 0.0
05/05:30pm 23.6 18.5 13.7 53 5.8 S 33 43 18 23 1016.6 1016.4 0.0
05/05:00pm 23.7 18.4 13.2 51 6.1 SSE 33 43 18 23 1016.7 1016.5 0.0
05/04:30pm 24.9 19.3 13.2 48 6.8 SSE 35 41 19 22 1016.7 1016.5 0.0
05/04:00pm 24.7 19.4 12.5 46 7.0 S 32 39 17 21 1016.8 1016.6 0.0
05/03:30pm 26.0 20.6 12.1 42 8.0 S 32 41 17 22 1017.1 1016.9 0.0
05/03:00pm 25.5 20.3 11.6 41 7.9 S 30 39 16 21 1017.4 1017.2 0.0
05/02:30pm 25.5 19.9 11.6 41 7.9 S 32 41 17 22 1017.8 1017.6 0.0
05/02:00pm 25.7 23.3 11.4 40 8.1 S 15 37 8 20 1018.0 1017.8 0.0
05/01:30pm 26.1 23.3 10.1 36 8.9 SSE 15 24 8 13 1018.3 1018.1 0.0
05/01:00pm 24.9 22.9 10.3 39 8.1 E 11 17 6 9 1018.8 1018.6 0.0
05/12:30pm 24.3 22.0 10.6 42 7.6 E 13 20 7 11 1019.2 1019.1 0.0
05/12:00pm 23.4 20.4 10.5 44 7.1 ESE 17 28 9 15 1019.5 1019.4 0.0
05/11:30am 22.9 18.9 10.6 45 6.8 ESE 22 33 12 18 1020.1 1020.0 0.0
05/11:00am 22.0 18.0 10.3 47 6.4 ESE 22 33 12 18 1020.4 1020.3 0.0
05/10:30am 21.4 17.3 10.2 49 6.1 ESE 22 32 12 17 1020.6 1020.5 0.0
05/10:00am 19.4 13.6 9.6 53 5.2 ESE 30 41 16 22 1021.0 1020.9 0.0
05/09:30am 18.8 12.8 10.0 56 4.7 ESE 32 41 17 22 1021.1 1021.0 0.0
05/09:00am 17.9 12.9 9.5 58 4.4 ESE 26 39 14 21 1021.5 1021.4 0.0
05/08:30am 17.3 12.7 9.5 60 4.1 SE 24 35 13 19 1021.3 1021.2 0.0
05/08:00am 16.4 11.8 9.7 64 3.5 SE 24 32 13 17 1021.1 1021.0 0.0
05/07:30am 15.1 11.4 9.5 69 2.9 SE 19 24 10 13 1020.9 1020.8 0.0
05/07:00am 13.8 10.4 9.3 74 2.3 SE 17 28 9 15 1020.6 1020.5 0.0
05/06:30am 13.4 9.4 9.0 75 2.2 SE 20 30 11 16 1020.3 1020.2 0.0
05/06:00am 13.6 8.9 9.1 74 2.3 SSE 24 33 13 18 1020.1 1020.0 0.0
05/05:30am 13.8 9.4 8.9 72 2.5 SSE 22 30 12 16 1020.0 1019.9 0.0
05/05:00am 14.1 10.1 9.2 72 2.5 SE 20 30 11 16 1020.0 1019.9 0.0
05/04:30am 14.2 10.2 9.1 71 2.6 SE 20 28 11 15 1020.0 1019.9 0.0
05/04:00am 14.2 8.6 8.9 70 2.7 SE 28 35 15 19 1020.0 1019.9 0.0
05/03:30am 14.5 9.3 9.0 69 2.8 SSE 26 35 14 19 1019.9 1019.8 0.0
05/03:00am 14.4 10.7 9.3 71 2.6 SSE 19 28 10 15 1020.1 1020.0 0.0
05/02:30am 14.3 10.6 9.4 72 2.5 SSE 19 26 10 14 1020.2 1020.1 0.0
05/02:00am 14.3 10.5 9.2 71 2.6 SE 19 28 10 15 1020.4 1020.3 0.0
05/01:30am 14.5 10.7 9.2 70 2.7 SE 19 32 10 17 1020.7 1020.6 0.0
05/01:00am 14.4 10.0 9.1 70 2.7 SE 22 33 12 18 1021.0 1020.9 0.0
05/12:30am 14.3 10.3 9.0 70 2.7 SE 20 32 11 17 1021.1 1021.0 0.0
05/12:00am 14.8 10.5 9.3 69 2.8 SSE 22 32 12 17 1021.1 1021.0 0.0
 
Date/Time
CDT
Temp
°C
App
Temp
°C
Dew
Point
Rel
Hum
%
Delta-T
°C
Wind Press
QNH
hPa
Press
MSL
hPa
Rain
since 9 am
mm
Dir
 
Spd
km/h
Gust
km/h
Spd
kts
Gust
kts
04/11:30pm 15.1 11.7 9.3 68 3.0 SE 17 26 9 14 1021.2 1021.1 0.0
04/11:00pm 14.7 10.9 9.2 69 2.8 SE 19 28 10 15 1021.5 1021.4 0.0
04/10:30pm 14.7 9.5 9.0 68 2.9 SE 26 39 14 21 1021.5 1021.4 0.0
04/10:00pm 14.9 10.5 9.0 68 3.0 SE 22 35 12 19 1021.6 1021.5 0.0
04/09:30pm 15.1 9.2 9.0 67 3.1 SE 30 39 16 21 1021.5 1021.4 0.0
04/09:00pm 14.8 9.7 9.1 68 2.9 SSE 26 35 14 19 1021.4 1021.3 0.0
04/08:30pm 15.0 10.0 9.4 69 2.9 SSE 26 39 14 21 1021.3 1021.2 0.0
04/08:00pm 15.7 10.3 9.5 66 3.2 SSE 28 39 15 21 1020.9 1020.8 0.0
04/07:30pm 17.0 10.5 8.9 59 4.2 SSE 33 43 18 23 1020.4 1020.3 0.0
04/07:00pm 18.0 11.5 9.0 55 4.7 SSE 33 46 18 25 1020.2 1020.1 0.0
04/06:30pm 18.5 12.0 8.9 53 5.0 SSE 33 44 18 24 1019.9 1019.8 0.0
04/06:00pm 19.4 12.4 8.4 49 5.7 SSE 35 46 19 25 1019.8 1019.7 0.0
04/05:30pm 20.3 13.4 8.7 47 6.1 SSE 35 43 19 23 1020.1 1020.0 0.0
04/05:00pm 21.0 14.0 8.4 44 6.6 SSE 35 44 19 24 1020.2 1020.1 0.0
04/04:30pm 21.1 14.1 8.5 44 6.6 SSE 35 46 19 25 1020.4 1020.3 0.0
04/04:00pm 21.1 14.5 8.5 44 6.6 SSE 33 48 18 26 1020.5 1020.4 0.0
04/03:30pm 21.2 14.5 8.2 43 6.8 SSE 33 44 18 24 1020.6 1020.5 0.0
04/03:00pm 21.6 14.7 9.0 44 6.7 SSE 35 46 19 25 1020.8 1020.7 0.0
04/02:45pm 20.3 13.3 8.4 46 6.2 S 35 65 19 35 1020.8 1020.7 0.0
04/02:30pm 21.6 14.5 8.0 41 7.1 S 35 50 19 27 1020.9 1020.8 0.0
04/02:00pm 21.3 14.5 9.1 45 6.5 S 35 48 19 26 1021.3 1021.2 0.0
04/01:35pm 21.7 15.2 8.9 44 6.8 S 33 52 18 28 1021.4 1021.3 0.0
04/01:30pm 21.5 14.7 9.1 45 6.6 SSE 35 52 19 28 1021.4 1021.3 0.0
04/01:00pm 20.5 14.3 7.9 44 6.5 SSE 30 41 16 22 1021.5 1021.4 0.0
04/12:30pm 20.4 13.4 8.6 46 6.2 S 35 50 19 27 1021.6 1021.5 0.0
04/12:00pm 20.6 14.6 8.8 46 6.2 SSE 30 43 16 23 1021.7 1021.6 0.0
04/11:30am 19.8 13.4 8.5 48 5.9 S 32 43 17 23 1021.7 1021.6 0.0
04/11:00am 19.1 12.4 8.2 49 5.6 S 33 43 18 23 1022.0 1021.9 0.0
04/10:30am 18.3 11.6 8.2 51 5.2 SSE 33 46 18 25 1021.9 1021.8 0.0
04/10:00am 18.6 12.3 9.0 53 5.0 SSE 32 39 17 21 1021.7 1021.6 0.0
04/09:30am 17.8 11.4 8.7 55 4.7 S 32 41 17 22 1021.8 1021.7 0.0
04/09:00am 17.5 11.9 8.8 56 4.5 SSE 28 35 15 19 1021.7 1021.6 0.0
04/08:30am 16.6 10.6 8.8 60 4.0 S 30 35 16 19 1021.5 1021.4 0.0
04/08:00am 16.0 10.7 8.5 61 3.8 S 26 37 14 20 1021.2 1021.1 0.0
04/07:30am 15.8 11.0 9.0 64 3.5 SSE 24 33 13 18 1020.8 1020.7 0.0
04/07:00am 15.4 11.4 8.9 65 3.3 S 20 30 11 16 1020.5 1020.4 0.0
04/06:30am 15.3 10.2 9.1 66 3.2 SSE 26 35 14 19 1020.2 1020.1 0.0
04/06:00am 15.5 10.8 9.1 65 3.3 S 24 32 13 17 1019.9 1019.8 0.0
04/05:30am 15.4 11.4 8.9 65 3.3 S 20 30 11 16 1019.5 1019.4 0.0

Other Formats:

Comma delimited format used in spreadsheet applications
http://www.bom.gov.au/fwo/IDS60801/IDS60801.94821.axf

JavaScript Object Notation format (JSON) in row-major order
http://www.bom.gov.au/fwo/IDS60801/IDS60801.94821.json